• Join FlightAware (Why Join?)
  • Login
  • US Flag 
06:35AM EDT


 

Airport Tracker/Info


-or-


 

Live Flight TrackerFlight Track Log ✈ SKW4473 ✈ 02-May-2013 ✈ KHLN - KSLC

Flight Track Log - Related Links

Times and Time Zones

All times are in EDT time to prevent confusion due to time zone crossing. See the SKW4473 flight status page for this flight to view local times or setup timezone preferences in your user account.

Time Position Orientation Groundspeed Altitude Reporting Facility
EDT Latitude Longitude Course Direction KTS MPH feet Rate Location/Type
03:14PM 46.4117 -111.9865 183° South  Level FlightAware Approximate
03:15PM 46.3172 -111.9944 183° South  Level FlightAware Approximate
03:16PM 46.2230 -112.0068 190° South  Level FlightAware Approximate
03:16PM 46.3903 -111.9414 186° South 285 328 13,100  Level Salt Lake Center
03:17PM 46.1289 -112.0167 180° South  Level FlightAware Approximate
03:17PM 46.3011 -111.9519 185° South 317 365 14,900  Level Salt Lake Center
03:18PM 46.0347 -112.0264 188° South  Level FlightAware Approximate
03:18PM 46.1803 -111.9664 185° South 362 417 16,900  Level Salt Lake Center
03:19PM 45.9404 -112.0333 180° South  Level FlightAware Approximate
03:19PM 46.0717 -111.9803 185° South 387 445 17,900  Level Salt Lake Center
03:20PM 45.8467 -112.0500 180° South  Level FlightAware Approximate
03:20PM 45.9586 -111.9917 184° South 405 466 19,600  Level Salt Lake Center
03:21PM 45.8456 -112.0061 185° South 409 471 21,000 1,200 Climbing Salt Lake Center
03:22PM 45.7300 -112.0183 184° South 417 480 22,200 1,080 Climbing Salt Lake Center
03:23PM 45.6119 -112.0336 185° South 425 489 23,300 960 Climbing Salt Lake Center
03:24PM 45.4661 -112.0506 185° South 439 505 24,200 780 Climbing Salt Lake Center
03:25PM 45.3414 -112.0639 184° South 449 517 25,000 780 Climbing Salt Lake Center
03:26PM 45.2153 -112.0778 184° South 453 521 25,800 780 Climbing Salt Lake Center
03:27PM 45.0886 -112.0939 185° South 459 528 26,700 960 Climbing Salt Lake Center
03:28PM 44.9472 -112.1092 184° South 458 527 27,800 960 Climbing Salt Lake Center
03:29PM 44.8261 -112.1233 185° South 458 527 28,800 1,020 Climbing Salt Lake Center
03:30PM 44.6858 -112.1400 185° South 457 526 29,900 1,020 Climbing Salt Lake Center
03:31PM 44.5658 -112.1531 184° South 454 522 30,900 480 Climbing Salt Lake Center
03:32PM 44.4236 -112.1708 185° South 462 532 31,000  Climbing Salt Lake Center
03:33PM 44.2967 -112.1844 184° South 476 548 31,000  Level Salt Lake Center
03:34PM 44.1447 -112.2003 184° South 488 562 31,000  Level Salt Lake Center
03:35PM 44.0131 -112.1894 177° South 493 567 31,000  Level Salt Lake Center
03:36PM 43.8600 -112.1489 169° South 502 578 31,000  Level Salt Lake Center
03:37PM 43.7292 -112.1153 169° South 501 577 31,000  Level Salt Lake Center
03:38PM 43.5969 -112.0817 170° South 505 581 31,000  Level Salt Lake Center
03:40PM 43.4444 -112.0422 169° South 501 577 31,000  Level Salt Lake Center
03:41PM 43.3117 -112.0094 170° South 504 580 31,000  Level Salt Lake Center
03:42PM 43.1567 -111.9703 170° South 507 583 31,000  Level Salt Lake Center
03:43PM 43.0244 -111.9364 169° South 507 583 31,000  Level Salt Lake Center
03:44PM 42.8706 -111.8989 170° South 505 581 31,000  Level Salt Lake Center
03:45PM 42.7369 -111.8658 170° South 510 587 31,000  Level Salt Lake Center
03:46PM 42.5836 -111.8772 183° South 499 574 31,000  Level Salt Lake Center
03:47PM 42.4456 -111.8992 187° South 500 575 31,000  Level Salt Lake Center
03:48PM 42.3078 -111.9225 187° South 500 575 31,000 -240 Level Salt Lake Center
03:49PM 42.1706 -111.9467 187° South 499 574 30,600 -1,680 Descending Salt Lake Center
03:50PM 42.0311 -111.9700 187° South 504 580 27,600 -2,940 Descending Salt Lake Center
03:51PM 41.8989 -111.9914 187° South 484 557 24,600 -3,240 Descending Salt Lake Center
03:52PM 41.7806 -112.0056 185° South 455 524 21,700 -3,000 Descending Salt Lake Center
03:53PM 41.6639 -112.0256 187° South 430 495 19,100 -1,680 Descending Salt Lake Center
03:54PM 41.5653 -112.0392 186° South 385 443 18,500 -840 Descending Salt Lake Center
03:54PM 41.5306 -112.0506 194° South 383 441 18,100 -840 Descending Salt Lake Center
03:55PM 41.4578 -112.0619 187° South 389 448 17,700 -840 Descending Salt Lake Center
03:55PM 41.4244 -112.0706 191° South 387 445 17,300 -1,500 Descending Salt Lake Center
03:56PM 41.3542 -112.0831 188° South 379 436 16,200 -1,500 Descending Salt Lake Center
03:56PM 41.3239 -112.0933 194° South 370 426 15,800 -1,440 Descending Salt Lake Center
03:57PM 41.2578 -112.1072 189° South 358 412 14,800 -1,260 Descending Salt Lake Center
03:57PM 41.2275 -112.1150 191° South 356 410 14,500 -1,500 Descending Salt Lake Center
03:58PM 41.1522 -112.1289 188° South 358 412 13,300 -1,380 Descending Salt Lake Center
03:58PM 41.1314 -112.1342 191° South 353 406 13,100 -1,380 Descending Salt Lake Center
03:59PM 41.0558 -112.1417 184° South 351 404 11,900 -1,680 Descending Salt Lake Center
03:59PM 41.0186 -112.1339 171° South 344 396 11,400 -900 Descending Salt Lake Center
04:00PM 40.9617 -112.1225 171° South 343 395 11,000 -420 Descending Salt Lake Center
04:00PM 40.9272 -112.1161 172° South 335 386 11,000  Level Salt Lake Center
04:01PM 40.8769 -112.1086 174° South 310 357 11,000  Level Salt Lake Center
04:01PM 40.8481 -112.1039 173° South 279 321 11,000  Level Salt Lake Center
04:02PM 40.8047 -112.1017 178° South 230 265 11,000  Level Salt Lake Center
04:02PM 40.7842 -112.0958 168° South 231 266 11,000 -600 Level Salt Lake Center
04:03PM 40.7475 -112.0956 180° South 228 262 10,500 -1,020 Descending Salt Lake Center
04:03PM 40.7219 -112.0892 169° South 225 259 10,000 -1,140 Descending Salt Lake Center
04:04PM 40.6872 -112.0850 175° South 204 235 9,400 -1,020 Descending Salt Lake Center
04:04PM 40.6681 -112.0731 155° Southeast 202 232 9,000 -840 Descending Salt Lake Center
04:05PM 40.6425 -112.0433 139° Southeast 195 224 8,500 -900 Descending Salt Lake Center
04:05PM 40.6414 -112.0069 92° East 184 212 8,100 -1,140 Descending Salt Lake Center
04:06PM 40.6483 -111.9850 67° East 161 185 7,400 -1,380 Descending Salt Lake Center
04:06PM 40.6717 -111.9814 North 159 183 6,700 -1,320 Descending Salt Lake Center
04:07PM 40.6878 -111.9886 341° North 156 180 6,200 -1,200 Descending Salt Lake Center